Hlavní strana
METAR-TAF:

METAR-TAF

Letiště :

Julian Carroll Airport

Jackson, Kentucky, Spojené státy americké

zeměpisná šířka: 37-35-29N, zeměpisná délka: 083-18-52W, výška: 421 m

Aktuální stav počasí

Zpráva byla vytvořena před 21 minutami, v 23:53 UTC
Bezvětří
Teplota 3°C
Vlhkost vzduchu 87%
Tlak 1027 hPa
Viditelnost: 16.1 km
Jasno

METAR: KJKL 072353Z AUTO 00000KT 10SM CLR 03/01 A3033 RMK AO2 SLP278 T00330006 10056 20033 53000

Čas: 19:14 (00:14 UTC)

Předpověď počasí

Zpráva byla vytvořena před 35 minutami, v 23:39 UTC
Předpověď platná od 08 v 00 UTC do 08 v 24 UTC
vítr z různých směrů 5 kt
Viditelnost: 10 km
Skoro jasno ve výšce 25000 ft

TAF: KJKL 072339Z 0800/0824 VRB05KT P6SM FEW250

Stav a předpovědi počasí z více než 4 000 letišť (zprávy METAR a TAF).

Červené a žluté tečky na mapě představují dostupné meteorologické stanice.

Když kurzor umístíte na tečku, zobrazí se název stanice.

Pak kliknutím zobrazíte stav a předpověď počasí.

Chcete-li změnit mapu, kliknutím na zelené tlačítko se znaménkem +mapu přiblížíte, kliknutím na zelené tlačítko se znaménkem – mapu oddálíte a kliknutím na zelené šipky přejdete na sousední mapy.


METAR-TAF: